createdAt,value
2022-12-03T00:02:08.207Z,101798.19
2022-12-03T00:04:33.782Z,101788.25
2022-12-03T00:06:59.385Z,101790.78
2022-12-03T00:09:24.932Z,101792.66
2022-12-03T00:11:50.479Z,101794.59
2022-12-03T00:14:16.052Z,101789.91
2022-12-03T00:16:41.629Z,101794.59
2022-12-03T00:19:07.219Z,101792.94
2022-12-03T00:21:33.179Z,101796.53
2022-12-03T00:23:58.720Z,101787.41
2022-12-03T00:26:24.310Z,101788.25
2022-12-03T00:28:49.864Z,101792.13
2022-12-03T00:31:15.460Z,101787.41
2022-12-03T00:33:41.057Z,101790.19
2022-12-03T00:36:06.725Z,101781.06
2022-12-03T00:38:32.263Z,101787.41
2022-12-03T00:40:57.833Z,101784.66
2022-12-03T00:43:23.384Z,101785.50
2022-12-03T00:45:48.932Z,101771.94
2022-12-03T00:48:14.468Z,101778.31
2022-12-03T00:50:40.019Z,101779.13
2022-12-03T00:53:05.559Z,101772.78
2022-12-03T00:55:31.110Z,101779.13
2022-12-03T00:57:56.653Z,101779.13
2022-12-03T01:00:24.061Z,101778.31
2022-12-03T01:02:50.848Z,101774.72
2022-12-03T01:05:16.785Z,101775.81
2022-12-03T01:07:42.468Z,101780.22
2022-12-03T01:10:08.270Z,101777.47
2022-12-03T01:12:33.815Z,101783.00
2022-12-03T01:14:59.383Z,101778.56
2022-12-03T01:17:24.920Z,101788.53
2022-12-03T01:19:51.769Z,101782.16
2022-12-03T01:22:17.572Z,101786.88
2022-12-03T01:24:43.120Z,101795.97
2022-12-03T01:27:08.658Z,101790.47
2022-12-03T01:29:34.208Z,101793.22
2022-12-03T01:32:19.916Z,101790.47
2022-12-03T01:34:46.367Z,101795.97
2022-12-03T01:37:12.181Z,101786.88
2022-12-03T01:39:37.740Z,101792.38
2022-12-03T01:42:03.287Z,101788.75
2022-12-03T01:44:30.472Z,101787.94
2022-12-03T01:46:56.884Z,101787.69
2022-12-03T01:49:23.093Z,101783.25
2022-12-03T01:51:48.925Z,101786.88
2022-12-03T01:54:16.611Z,101787.94
2022-12-03T01:56:42.183Z,101785.16
2022-12-03T01:59:08.343Z,101778.81
2022-12-03T02:01:33.921Z,101781.59
2022-12-03T02:03:59.557Z,101779.66
2022-12-03T02:06:25.172Z,101789.88
2022-12-03T02:08:57.876Z,101778.00
2022-12-03T02:11:26.269Z,101780.47
2022-12-03T02:13:52.730Z,101774.13
2022-12-03T02:16:18.329Z,101779.66
2022-12-03T02:18:43.889Z,101776.06
2022-12-03T02:21:29.328Z,101778.00
2022-12-03T02:24:01.408Z,101776.06
2022-12-03T02:26:27.000Z,101771.63
2022-12-03T02:28:52.542Z,101772.47
2022-12-03T02:31:18.138Z,101764.19
2022-12-03T02:33:44.211Z,101763.06
2022-12-03T02:36:09.759Z,101757.81
2022-12-03T02:38:35.296Z,101757.81
2022-12-03T02:41:03.999Z,101759.75
2022-12-03T02:43:29.536Z,101754.22
2022-12-03T02:45:55.740Z,101747.59
2022-12-03T02:48:29.389Z,101747.59
2022-12-03T02:50:55.595Z,101751.47
2022-12-03T02:53:23.300Z,101745.94
2022-12-03T02:55:49.033Z,101743.19
2022-12-03T02:58:14.575Z,101748.44
2022-12-03T03:00:40.374Z,101744.28
2022-12-03T03:03:05.970Z,101736.00
2022-12-03T03:05:31.528Z,101737.66
2022-12-03T03:07:58.324Z,101736.81
2022-12-03T03:10:24.300Z,101740.41
2022-12-03T03:12:50.479Z,101742.34
2022-12-03T03:15:16.020Z,101745.13
2022-12-03T03:17:41.675Z,101746.22
2022-12-03T03:20:08.409Z,101745.13
2022-12-03T03:22:34.782Z,101744.28
2022-12-03T03:25:00.338Z,101739.59
2022-12-03T03:27:26.227Z,101743.19
2022-12-03T03:29:51.765Z,101734.06
2022-12-03T03:32:17.326Z,101742.34
2022-12-03T03:34:42.887Z,101745.13
2022-12-03T03:37:08.449Z,101738.75
2022-12-03T03:39:34.504Z,101743.47
2022-12-03T03:42:00.084Z,101740.69
2022-12-03T03:44:25.630Z,101737.94
2022-12-03T03:46:51.185Z,101741.53
2022-12-03T03:49:16.722Z,101733.25
2022-12-03T03:51:42.281Z,101740.41
2022-12-03T03:54:07.845Z,101735.16
2022-12-03T03:56:33.391Z,101732.41
2022-12-03T03:58:59.032Z,101734.06
2022-12-03T04:01:24.696Z,101732.41
2022-12-03T04:03:51.684Z,101732.41
2022-12-03T04:06:17.245Z,101731.31
2022-12-03T04:08:42.804Z,101737.94
2022-12-03T04:11:28.377Z,101729.88
2022-12-03T04:13:53.930Z,101729.66
2022-12-03T04:16:19.555Z,101728.78
2022-12-03T04:18:45.164Z,101726.03
2022-12-03T04:21:32.613Z,101720.50
2022-12-03T04:23:58.173Z,101719.66
2022-12-03T04:26:43.648Z,101716.06
2022-12-03T04:29:09.234Z,101718.84
2022-12-03T04:31:54.704Z,101723.25
2022-12-03T04:34:40.191Z,101716.91
2022-12-03T04:37:05.775Z,101721.59
2022-12-03T04:39:31.320Z,101714.16
2022-12-03T04:41:56.864Z,101712.22
2022-12-03T04:44:37.423Z,101714.97
2022-12-03T04:47:05.472Z,101708.63
2022-12-03T04:49:31.131Z,101709.44
2022-12-03T04:51:56.679Z,101711.38
2022-12-03T04:54:22.321Z,101713.31
2022-12-03T04:56:47.864Z,101709.72
2022-12-03T04:59:16.288Z,101704.19
2022-12-03T05:01:42.415Z,101703.38
2022-12-03T05:04:08.005Z,101706.13
2022-12-03T05:06:33.548Z,101700.59
2022-12-03T05:08:59.101Z,101707.78
2022-12-03T05:11:24.646Z,101702.25
2022-12-03T05:13:51.616Z,101700.59
2022-12-03T05:16:17.342Z,101706.13
2022-12-03T05:18:42.968Z,101704.19
2022-12-03T05:21:08.523Z,101705.31
2022-12-03T05:23:34.077Z,101701.44
2022-12-03T05:25:59.625Z,101709.72
2022-12-03T05:28:25.179Z,101706.97
2022-12-03T05:30:50.968Z,101708.91
2022-12-03T05:33:16.631Z,101701.44
2022-12-03T05:35:42.207Z,101706.13
2022-12-03T05:38:07.743Z,101703.38
2022-12-03T05:40:33.281Z,101698.69
2022-12-03T05:43:00.912Z,101708.06
2022-12-03T05:45:27.295Z,101699.78
2022-12-03T05:47:53.320Z,101700.59
2022-12-03T05:50:19.244Z,101697.03
2022-12-03T05:52:44.803Z,101702.53
2022-12-03T05:55:11.019Z,101692.31
2022-12-03T05:57:36.647Z,101694.25
2022-12-03T06:00:03.016Z,101690.66
2022-12-03T06:02:28.760Z,101698.13
2022-12-03T06:04:54.621Z,101699.78
2022-12-03T06:07:20.390Z,101705.31
2022-12-03T06:09:45.941Z,101703.38
2022-12-03T06:12:11.597Z,101707.22
2022-12-03T06:14:37.148Z,101710.00
2022-12-03T06:17:03.916Z,101701.72
2022-12-03T06:19:29.573Z,101706.41
2022-12-03T06:21:55.120Z,101708.06
2022-12-03T06:24:20.677Z,101707.22
2022-12-03T06:26:46.228Z,101698.94
2022-12-03T06:29:11.779Z,101700.88
2022-12-03T06:31:37.494Z,101697.25
2022-12-03T06:34:03.109Z,101696.19
2022-12-03T06:36:28.651Z,101694.50
2022-12-03T06:38:54.194Z,101697.25
2022-12-03T06:41:19.817Z,101686.22
2022-12-03T06:43:45.375Z,101690.91
2022-12-03T06:46:10.934Z,101693.66
2022-12-03T06:48:36.534Z,101688.97
2022-12-03T06:51:02.074Z,101690.91
2022-12-03T06:53:27.616Z,101687.06
2022-12-03T06:55:53.164Z,101696.44
2022-12-03T06:58:18.702Z,101697.25
2022-12-03T07:00:44.254Z,101694.50
2022-12-03T07:03:09.844Z,101698.13
2022-12-03T07:05:35.422Z,101695.34
2022-12-03T07:08:01.006Z,101690.91
2022-12-03T07:10:26.600Z,101695.34
2022-12-03T07:12:52.148Z,101692.59
2022-12-03T07:15:17.860Z,101690.91
2022-12-03T07:17:43.469Z,101693.66
2022-12-03T07:20:09.107Z,101690.06
2022-12-03T07:22:34.654Z,101696.44
2022-12-03T07:25:00.219Z,101692.00
2022-12-03T07:27:25.767Z,101695.59
2022-12-03T07:29:51.320Z,101688.41
2022-12-03T07:32:16.861Z,101696.44
2022-12-03T07:34:42.412Z,101689.25
2022-12-03T07:37:07.948Z,101687.31
2022-12-03T07:39:33.573Z,101693.66
2022-12-03T07:41:59.111Z,101692.84
2022-12-03T07:44:24.943Z,101692.84
2022-12-03T07:46:50.553Z,101693.94
2022-12-03T07:49:16.150Z,101692.00
2022-12-03T07:55:11.994Z,101692.84
2022-12-03T07:57:37.540Z,101694.78
2022-12-03T08:00:04.525Z,101693.94
2022-12-03T08:02:30.186Z,101694.78
2022-12-03T08:04:56.025Z,101693.94
2022-12-03T08:07:21.789Z,101696.69
2022-12-03T08:09:47.335Z,101695.59
2022-12-03T08:12:15.142Z,101697.53
2022-12-03T08:14:40.690Z,101695.88
2022-12-03T08:17:09.470Z,101695.88
2022-12-03T08:19:35.042Z,101693.13
2022-12-03T08:22:01.538Z,101689.53
2022-12-03T08:24:28.383Z,101688.41
2022-12-03T08:26:53.923Z,101692.84
2022-12-03T08:29:19.479Z,101695.88
2022-12-03T08:31:46.956Z,101695.88
2022-12-03T08:36:50.770Z,101692.28
2022-12-03T08:39:32.771Z,101698.63
2022-12-03T08:42:21.735Z,101702.22
2022-12-03T08:44:47.290Z,101695.03
2022-12-03T08:47:14.091Z,101705.81
2022-12-03T08:49:39.688Z,101705.00
2022-12-03T08:52:10.547Z,101701.41
2022-12-03T08:54:36.115Z,101702.50
2022-12-03T08:57:05.932Z,101707.75
2022-12-03T08:59:31.516Z,101703.34
2022-12-03T09:01:57.471Z,101696.97
2022-12-03T09:04:25.637Z,101695.88
2022-12-03T09:06:51.245Z,101697.81
2022-12-03T09:09:16.790Z,101701.41
2022-12-03T09:11:42.481Z,101701.69
2022-12-03T09:14:08.180Z,101700.56
2022-12-03T09:16:33.772Z,101699.75
2022-12-03T09:18:59.411Z,101699.75
2022-12-03T09:21:24.949Z,101703.34
2022-12-03T09:23:50.496Z,101706.09
2022-12-03T09:26:16.048Z,101702.50
2022-12-03T09:28:41.586Z,101697.81
2022-12-03T09:31:07.136Z,101694.22
2022-12-03T09:33:32.676Z,101696.97
2022-12-03T09:35:58.692Z,101708.84
2022-12-03T09:38:24.349Z,101705.25
2022-12-03T09:40:49.909Z,101696.97
2022-12-03T09:43:15.556Z,101702.50
2022-12-03T09:45:41.151Z,101700.56
2022-12-03T09:48:06.718Z,101695.28
2022-12-03T09:50:32.280Z,101704.44
2022-12-03T09:52:58.218Z,101689.75
2022-12-03T09:55:25.243Z,101685.09
2022-12-03T09:57:51.420Z,101682.34
2022-12-03T10:00:18.360Z,101679.56
2022-12-03T10:02:44.701Z,101682.34
2022-12-03T10:05:10.306Z,101687.88
2022-12-03T10:07:36.008Z,101674.06
2022-12-03T10:10:01.610Z,101675.97
2022-12-03T10:12:27.154Z,101677.88
2022-12-03T10:14:52.958Z,101673.19
2022-12-03T10:17:18.694Z,101666.84
2022-12-03T10:19:44.243Z,101664.09
2022-12-03T10:22:09.787Z,101665.19
2022-12-03T10:24:35.779Z,101656.63
2022-12-03T10:27:03.405Z,101656.63
2022-12-03T10:29:34.053Z,101661.31
2022-12-03T10:32:01.451Z,101655.78
2022-12-03T10:34:30.397Z,101648.34
2022-12-03T10:37:15.875Z,101642.00
2022-12-03T10:40:01.574Z,101637.28
2022-12-03T10:42:28.264Z,101636.47
2022-12-03T10:45:12.171Z,101625.41
2022-12-03T10:47:37.813Z,101629.00
2022-12-03T10:50:05.005Z,101627.34
2022-12-03T10:52:30.565Z,101609.94
2022-12-03T10:54:56.344Z,101619.06
2022-12-03T10:57:22.068Z,101614.38
2022-12-03T10:59:47.625Z,101608.03
2022-12-03T11:02:21.201Z,101607.19
2022-12-03T11:04:46.749Z,101610.78
2022-12-03T11:07:13.733Z,101604.44
2022-12-03T11:09:39.285Z,101598.63
2022-12-03T11:12:05.531Z,101595.03
2022-12-03T11:14:52.225Z,101594.22
2022-12-03T11:17:37.834Z,101590.63
2022-12-03T11:20:03.880Z,101595.88
2022-12-03T11:22:38.643Z,101592.56
2022-12-03T11:25:24.128Z,101599.72
2022-12-03T11:28:09.598Z,101601.66
2022-12-03T11:30:53.086Z,101590.63
2022-12-03T11:33:20.865Z,101587.84
2022-12-03T11:36:06.352Z,101583.16
2022-12-03T11:38:52.941Z,101578.75
2022-12-03T11:41:23.696Z,101573.22
2022-12-03T11:46:27.569Z,101566.59
2022-12-03T11:48:53.760Z,101564.94
2022-12-03T11:51:20.101Z,101560.53
2022-12-03T11:53:45.646Z,101560.25
2022-12-03T11:56:15.348Z,101557.47
2022-12-03T11:58:41.852Z,101557.47
2022-12-03T12:01:07.648Z,101559.41
2022-12-03T12:03:34.492Z,101543.69
2022-12-03T12:06:01.777Z,101544.78
2022-12-03T12:08:27.333Z,101538.16
2022-12-03T12:10:52.875Z,101535.66
2022-12-03T12:13:28.316Z,101537.31
2022-12-03T12:15:54.115Z,101536.50
2022-12-03T12:18:39.691Z,101536.50
2022-12-03T12:21:25.118Z,101531.81
2022-12-03T12:23:50.671Z,101523.50
2022-12-03T12:26:16.223Z,101518.00
2022-12-03T12:28:41.773Z,101518.00
2022-12-03T12:31:10.901Z,101519.94
2022-12-03T12:33:36.492Z,101522.69
2022-12-03T12:36:07.481Z,101514.41
2022-12-03T12:38:33.030Z,101515.22
2022-12-03T12:40:58.584Z,101509.72
2022-12-03T12:43:25.149Z,101510.81
2022-12-03T12:45:52.381Z,101497.00
2022-12-03T12:48:20.698Z,101505.28
2022-12-03T12:50:46.859Z,101497.00
2022-12-03T12:53:32.317Z,101500.59
2022-12-03T12:56:01.700Z,101505.28
2022-12-03T12:58:29.858Z,101496.19
2022-12-03T13:00:56.959Z,101504.19
2022-12-03T13:03:23.904Z,101495.91
2022-12-03T13:05:49.853Z,101496.19
2022-12-03T13:08:35.290Z,101489.53
2022-12-03T13:11:01.038Z,101495.06
2022-12-03T13:13:29.595Z,101491.47
2022-12-03T13:18:46.225Z,101484.03
2022-12-03T13:21:13.047Z,101481.50
2022-12-03T13:23:38.788Z,101476.84
2022-12-03T13:26:21.334Z,101484.03
2022-12-03T13:28:50.705Z,101478.50
2022-12-03T13:31:25.010Z,101468.56
2022-12-03T13:33:50.780Z,101472.16
2022-12-03T13:36:16.325Z,101480.44
2022-12-03T13:38:42.432Z,101471.31
2022-12-03T13:41:28.269Z,101467.72
2022-12-03T13:43:53.817Z,101470.47
2022-12-03T13:46:19.423Z,101471.03
2022-12-03T13:48:45.095Z,101465.81
2022-12-03T13:51:13.414Z,101471.31
2022-12-03T13:53:39.327Z,101466.63
2022-12-03T13:56:21.584Z,101470.22
2022-12-03T13:58:47.147Z,101464.94
2022-12-03T14:01:12.854Z,101458.59
2022-12-03T14:03:38.508Z,101461.09
2022-12-03T14:06:04.046Z,101459.41
2022-12-03T14:08:29.595Z,101462.19
2022-12-03T14:11:00.198Z,101460.28
2022-12-03T14:13:26.341Z,101455.84
2022-12-03T14:15:51.886Z,101453.06
2022-12-03T14:18:17.433Z,101448.38
2022-12-03T14:20:42.980Z,101453.91
2022-12-03T14:23:08.531Z,101451.13
2022-12-03T14:25:34.075Z,101450.31
2022-12-03T14:27:59.979Z,101456.66
2022-12-03T14:30:25.607Z,101456.66
2022-12-03T14:32:51.148Z,101447.53
2022-12-03T14:35:16.708Z,101453.91
2022-12-03T14:37:42.253Z,101451.13
2022-12-03T14:40:08.252Z,101446.47
2022-12-03T14:42:34.045Z,101445.63
2022-12-03T14:44:59.603Z,101452.25
2022-12-03T14:47:25.148Z,101458.59
2022-12-03T14:49:50.831Z,101449.47
2022-12-03T14:52:16.809Z,101455.00
2022-12-03T14:54:42.901Z,101445.63
2022-12-03T14:57:09.037Z,101460.28
2022-12-03T14:59:34.594Z,101455.00
2022-12-03T15:02:00.274Z,101453.06
2022-12-03T15:04:25.920Z,101457.78
2022-12-03T15:06:51.474Z,101458.59
2022-12-03T15:09:17.020Z,101455.00
2022-12-03T15:11:46.128Z,101446.72
2022-12-03T15:14:12.253Z,101448.38
2022-12-03T15:16:37.900Z,101445.06
2022-12-03T15:19:03.497Z,101449.47
2022-12-03T15:21:31.889Z,101456.66
2022-12-03T15:23:58.087Z,101446.72
2022-12-03T15:26:23.631Z,101460.53
2022-12-03T15:28:49.193Z,101457.78
2022-12-03T15:31:14.765Z,101457.78
2022-12-03T15:33:40.354Z,101458.59
2022-12-03T15:36:06.077Z,101456.13
2022-12-03T15:38:31.621Z,101455.84
2022-12-03T15:40:57.313Z,101452.53
2022-12-03T15:43:22.855Z,101450.59
2022-12-03T15:45:48.463Z,101457.78
2022-12-03T15:48:14.046Z,101456.13
2022-12-03T15:50:40.443Z,101455.00
2022-12-03T15:53:06.102Z,101449.47
2022-12-03T15:55:31.656Z,101440.38
2022-12-03T15:57:57.201Z,101447.53
2022-12-03T16:00:22.759Z,101450.59
2022-12-03T16:02:52.655Z,101453.06
2022-12-03T16:05:18.728Z,101447.53
2022-12-03T16:07:44.310Z,101443.97
2022-12-03T16:10:10.285Z,101446.72
2022-12-03T16:12:35.833Z,101446.72
2022-12-03T16:15:01.396Z,101444.78
2022-12-03T16:17:26.938Z,101446.72
2022-12-03T16:19:52.858Z,101445.06
2022-12-03T16:22:18.663Z,101439.53
2022-12-03T16:24:44.220Z,101437.88
2022-12-03T16:27:09.771Z,101441.47
2022-12-03T16:29:35.328Z,101430.16
2022-12-03T16:32:00.992Z,101434.03
2022-12-03T16:34:26.545Z,101436.78
2022-12-03T16:36:52.090Z,101441.19
2022-12-03T16:39:18.217Z,101433.75
2022-12-03T16:41:43.756Z,101434.03
2022-12-03T16:44:19.206Z,101441.19
2022-12-03T16:46:45.279Z,101430.44
2022-12-03T16:49:10.862Z,101437.06
2022-12-03T16:51:36.410Z,101438.72
2022-12-03T16:54:01.969Z,101435.97
2022-12-03T16:56:27.520Z,101447.81
2022-12-03T16:58:53.073Z,101435.97
2022-12-03T17:01:18.709Z,101433.19
2022-12-03T17:03:44.368Z,101432.38
2022-12-03T17:06:09.913Z,101435.97
2022-12-03T17:08:35.483Z,101428.78
2022-12-03T17:11:01.085Z,101438.72
2022-12-03T17:13:26.801Z,101430.44
2022-12-03T17:15:52.383Z,101437.06
2022-12-03T17:18:17.997Z,101440.38
2022-12-03T17:20:43.545Z,101435.97
2022-12-03T17:23:09.107Z,101426.84
2022-12-03T17:25:34.704Z,101429.59
2022-12-03T17:28:00.460Z,101438.72
2022-12-03T17:30:26.017Z,101429.59
2022-12-03T17:32:51.574Z,101428.78
2022-12-03T17:35:17.233Z,101437.06
2022-12-03T17:37:42.779Z,101428.78
2022-12-03T17:40:09.028Z,101431.53
2022-12-03T17:42:34.597Z,101424.09
2022-12-03T17:45:00.160Z,101425.19
2022-12-03T17:47:25.722Z,101416.91
2022-12-03T17:49:51.513Z,101417.72
2022-12-03T17:52:17.304Z,101423.25
2022-12-03T17:55:08.939Z,101424.09
2022-12-03T17:57:28.370Z,101415.81
2022-12-03T17:59:54.161Z,101417.72
2022-12-03T18:02:19.955Z,101415.81
2022-12-03T18:04:45.526Z,101411.38
2022-12-03T18:07:11.069Z,101409.44
2022-12-03T18:09:36.629Z,101403.94
2022-12-03T18:12:02.187Z,101410.28
2022-12-03T18:14:27.737Z,101407.50
2022-12-03T18:16:53.298Z,101404.75
2022-12-03T18:19:18.842Z,101398.41
2022-12-03T18:21:44.397Z,101400.34
2022-12-03T18:24:09.935Z,101406.69
2022-12-03T18:26:35.489Z,101406.69
2022-12-03T18:29:01.032Z,101402.00
2022-12-03T18:31:26.667Z,101399.22
2022-12-03T18:33:52.771Z,101394.81
2022-12-03T18:36:20.303Z,101395.66
2022-12-03T18:38:49.557Z,101397.56
2022-12-03T18:41:15.110Z,101394.81
2022-12-03T18:43:40.664Z,101390.13
2022-12-03T18:46:25.284Z,101393.72
2022-12-03T18:48:53.881Z,101388.44
2022-12-03T18:51:20.565Z,101382.91
2022-12-03T18:53:46.278Z,101389.28
2022-12-03T18:56:11.969Z,101383.78
2022-12-03T18:58:37.557Z,101382.91
2022-12-03T19:01:03.585Z,101385.69
2022-12-03T19:03:29.240Z,101390.94
2022-12-03T19:05:54.878Z,101389.28
2022-12-03T19:08:20.492Z,101389.28
2022-12-03T19:10:53.396Z,101389.28
2022-12-03T19:13:18.946Z,101392.06
2022-12-03T19:15:45.501Z,101385.69
2022-12-03T19:18:11.064Z,101381.00
2022-12-03T19:20:38.740Z,101383.78
2022-12-03T19:23:04.297Z,101381.84
2022-12-03T19:25:29.836Z,101378.25
2022-12-03T19:27:56.228Z,101386.53
2022-12-03T19:30:21.788Z,101380.16
2022-12-03T19:32:50.705Z,101382.91
2022-12-03T19:35:16.971Z,101390.38
2022-12-03T19:37:42.573Z,101391.19
2022-12-03T19:40:09.390Z,101386.53
2022-12-03T19:42:34.943Z,101389.28
2022-12-03T19:45:00.485Z,101385.69
2022-12-03T19:47:26.040Z,101382.91
2022-12-03T19:49:52.194Z,101385.69
2022-12-03T19:52:17.944Z,101385.69
2022-12-03T19:54:43.488Z,101384.84
2022-12-03T19:57:09.047Z,101390.13
2022-12-03T19:59:34.593Z,101385.69
2022-12-03T20:02:00.293Z,101385.97
2022-12-03T20:04:25.959Z,101383.19
2022-12-03T20:06:51.540Z,101386.78
2022-12-03T20:09:17.129Z,101390.38
2022-12-03T20:11:43.720Z,101386.78
2022-12-03T20:14:10.502Z,101388.44
2022-12-03T20:16:36.238Z,101384.03
2022-12-03T20:19:02.895Z,101389.53
2022-12-03T20:21:29.614Z,101384.03
2022-12-03T20:23:55.163Z,101388.72
2022-12-03T20:26:20.853Z,101389.28
2022-12-03T20:28:47.518Z,101394.81
2022-12-03T20:31:14.276Z,101384.84
2022-12-03T20:33:41.053Z,101388.44
2022-12-03T20:36:06.798Z,101384.84
2022-12-03T20:38:32.614Z,101390.38
2022-12-03T20:41:06.243Z,101385.97
2022-12-03T20:43:31.849Z,101384.03
2022-12-03T20:46:04.870Z,101381.25
2022-12-03T20:48:30.469Z,101381.25
2022-12-03T20:50:56.006Z,101375.75
2022-12-03T20:53:25.581Z,101374.63
2022-12-03T20:55:58.665Z,101374.91
2022-12-03T20:58:24.260Z,101377.69
2022-12-03T21:00:49.907Z,101372.97
2022-12-03T21:03:15.496Z,101379.59
2022-12-03T21:05:42.961Z,101369.38
2022-12-03T21:08:08.934Z,101377.69
2022-12-03T21:10:36.256Z,101371.31
2022-12-03T21:13:01.849Z,101364.69
2022-12-03T21:15:27.401Z,101369.38
2022-12-03T21:17:53.023Z,101367.47
2022-12-03T21:20:21.325Z,101374.91
2022-12-03T21:22:48.757Z,101372.16
2022-12-03T21:25:14.304Z,101359.19
2022-12-03T21:27:39.860Z,101363.88
2022-12-03T21:30:05.708Z,101368.56
2022-12-03T21:32:31.260Z,101369.38
2022-12-03T21:34:56.800Z,101372.97
2022-12-03T21:37:22.357Z,101367.47
2022-12-03T21:39:47.901Z,101371.31
2022-12-03T21:42:34.777Z,101361.94
2022-12-03T21:44:58.970Z,101363.03
2022-12-03T21:47:24.590Z,101371.03
2022-12-03T21:49:50.237Z,101365.81
2022-12-03T21:52:15.788Z,101371.03
2022-12-03T21:54:41.331Z,101363.03
2022-12-03T21:57:06.909Z,101363.88
2022-12-03T21:59:32.447Z,101358.34
2022-12-03T22:01:58.019Z,101364.69
2022-12-03T22:04:23.633Z,101355.59
2022-12-03T22:06:49.189Z,101370.22
2022-12-03T22:09:14.732Z,101356.69
2022-12-03T22:11:40.284Z,101352.00
2022-12-03T22:14:07.382Z,101357.53
2022-12-03T22:16:32.969Z,101352.81
2022-12-03T22:18:58.523Z,101356.69
2022-12-03T22:21:24.994Z,101352.00
2022-12-03T22:23:50.603Z,101353.09
2022-12-03T22:26:16.659Z,101354.75
2022-12-03T22:28:43.038Z,101354.75
2022-12-03T22:31:08.767Z,101352.00
2022-12-03T22:33:34.561Z,101344.81
2022-12-03T22:36:00.965Z,101341.78
2022-12-03T22:38:27.682Z,101340.13
2022-12-03T22:40:53.254Z,101339.84
2022-12-03T22:43:18.819Z,101342.06
2022-12-03T22:45:44.370Z,101343.72
2022-12-03T22:48:09.924Z,101340.13
2022-12-03T22:50:50.867Z,101336.25
2022-12-03T22:53:16.488Z,101335.44
2022-12-03T22:55:42.029Z,101328.25
2022-12-03T22:58:07.696Z,101326.31
2022-12-03T23:00:35.195Z,101326.31
2022-12-03T23:03:00.838Z,101329.09
2022-12-03T23:05:29.660Z,101325.50
2022-12-03T23:07:55.277Z,101322.75
2022-12-03T23:10:20.898Z,101321.63
2022-12-03T23:12:46.451Z,101312.50
2022-12-03T23:15:11.992Z,101310.59
2022-12-03T23:17:37.544Z,101307.00
2022-12-03T23:20:03.188Z,101303.41
2022-12-03T23:22:28.756Z,101303.41
2022-12-03T23:24:54.333Z,101307.81
2022-12-03T23:27:19.899Z,101297.88
2022-12-03T23:29:45.446Z,101305.34
2022-12-03T23:32:11.008Z,101309.75
2022-12-03T23:34:36.662Z,101304.25
2022-12-03T23:37:02.233Z,101303.41
2022-12-03T23:39:27.790Z,101307.00
2022-12-03T23:41:53.338Z,101309.75
2022-12-03T23:44:18.893Z,101308.94
2022-12-03T23:46:44.502Z,101307.00
2022-12-03T23:49:10.128Z,101306.16
2022-12-03T23:51:35.673Z,101308.09
2022-12-03T23:54:01.224Z,101306.16
2022-12-03T23:56:28.230Z,101306.16
2022-12-03T23:58:53.866Z,101309.75
